PWSweather.com
Personal Weather Stations
Station Observations
PARKVIEWX
Lake Worth Lake Charleston Parkview, Lake Worth, FL 33467

Lake Worth Lake Charleston ParkviewLake Worth, FL 33467

Lat: 26.565627, Lon: -80.162068

Elevation: 33

Station Type: Davis Vantage Pro 2

Latest ConditionsUpdated 2:48:31 AM EST Thursday, Dec 12, 2019
Currently Today's Max Today's Min Today's Average
Temperature 71.2°F21.8°C 72.1°F22.3°C 71.2°F21.8°C 71.7°F22.1°C
Dew Point 70.3°F21.3°C 70.9°F21.6°C 70.0°F21.1°C 70.5°F21.4°C
Winds 2.0 mph NNW3.2 kmh NNW 2.9 mph -4.7 kmh - - 1.4 mph 2.3 kmh
Wind Gusts 2.0 mph3.2 kmh 6.0 mph9.7 kmh - -
Humidity 97% 97% 96% 96%
Pressure 30.20 in1022.7 mb 30.23 in1023.7 mb 30.20 in1022.7 mb -
Hour Temp Dew Point Humidity Winds Wind Gusts Pressure Precip Precip Rate Daily Precip Total
02:48 AM 71.2°F21.8°C 70.3°F21.3°C 97% 2.0 mph NNW3.2 kmh NNW 2.0 mph3.2 kmh 30.20 in1022.7 mb 0.00 in0.0 mm 0.00 in0.0 mm 0.00 in0.0 mm
02:47 AM 71.2°F21.8°C 70.3°F21.3°C 97% 2.0 mph NNW3.2 kmh NNW 2.0 mph3.2 kmh 30.20 in1022.7 mb 0.00 in0.0 mm 0.00 in0.0 mm 0.00 in0.0 mm
02:46 AM 71.2°F21.8°C 70.3°F21.3°C 97% 2.0 mph NNW3.2 kmh NNW 2.0 mph3.2 kmh 30.20 in1022.7 mb 0.00 in0.0 mm 0.00 in0.0 mm 0.00 in0.0 mm
02:45 AM 71.2°F21.8°C 70.3°F21.3°C 97% 2.0 mph NNW3.2 kmh NNW 0.9 mph1.4 kmh 30.20 in1022.7 mb 0.00 in0.0 mm 0.00 in0.0 mm 0.00 in0.0 mm
02:44 AM 71.2°F21.8°C 70.3°F21.3°C 97% 2.0 mph NNW3.2 kmh NNW 2.9 mph4.7 kmh 30.20 in1022.7 mb 0.00 in0.0 mm 0.00 in0.0 mm 0.00 in0.0 mm
02:43 AM 71.4°F21.9°C 70.5°F21.4°C 97% 2.0 mph NNW3.2 kmh NNW 2.9 mph4.7 kmh 30.20 in1022.7 mb 0.00 in0.0 mm 0.00 in0.0 mm 0.00 in0.0 mm
02:42 AM 71.2°F21.8°C 70.3°F21.3°C 97% 2.0 mph NNW3.2 kmh NNW 4.0 mph6.4 kmh 30.20 in1022.7 mb 0.00 in0.0 mm 0.00 in0.0 mm 0.00 in0.0 mm
02:41 AM 71.2°F21.8°C 70.3°F21.3°C 97% 2.0 mph NNW3.2 kmh NNW 4.9 mph7.9 kmh 30.20 in1022.7 mb 0.00 in0.0 mm 0.00 in0.0 mm 0.00 in0.0 mm
02:40 AM 71.2°F21.8°C 70.3°F21.3°C 97% 0.9 mph N1.4 kmh N 2.9 mph4.7 kmh 30.20 in1022.7 mb 0.00 in0.0 mm 0.00 in0.0 mm 0.00 in0.0 mm
02:39 AM 71.2°F21.8°C 70.3°F21.3°C 97% 0.9 mph N1.4 kmh N 2.9 mph4.7 kmh 30.20 in1022.7 mb 0.00 in0.0 mm 0.00 in0.0 mm 0.00 in0.0 mm
02:38 AM 71.2°F21.8°C 70.3°F21.3°C 97% 0.9 mph N1.4 kmh N 2.9 mph4.7 kmh 30.20 in1022.7 mb 0.00 in0.0 mm 0.00 in0.0 mm 0.00 in0.0 mm
02:37 AM 71.2°F21.8°C 70.3°F21.3°C 97% 0.9 mph N1.4 kmh N 2.9 mph4.7 kmh 30.20 in1022.7 mb 0.00 in0.0 mm 0.00 in0.0 mm 0.00 in0.0 mm
02:36 AM 71.2°F21.8°C 70.3°F21.3°C 97% 0.9 mph N1.4 kmh N 2.9 mph4.7 kmh 30.20 in1022.7 mb 0.00 in0.0 mm 0.00 in0.0 mm 0.00 in0.0 mm
02:35 AM 71.2°F21.8°C 70.3°F21.3°C 97% Calm Calm 2.0 mph3.2 kmh 30.21 in1023.0 mb 0.00 in0.0 mm 0.00 in0.0 mm 0.00 in0.0 mm
02:34 AM 71.2°F21.8°C 70.3°F21.3°C 97% Calm Calm -- 30.21 in1023.0 mb 0.00 in0.0 mm 0.00 in0.0 mm 0.00 in0.0 mm
02:33 AM 71.2°F21.8°C 70.3°F21.3°C 97% 0.9 mph NE1.4 kmh NE 0.9 mph1.4 kmh 30.20 in1022.7 mb 0.00 in0.0 mm 0.00 in0.0 mm 0.00 in0.0 mm
02:32 AM 71.2°F21.8°C 70.3°F21.3°C 97% 0.9 mph NE1.4 kmh NE 2.0 mph3.2 kmh 30.20 in1022.7 mb 0.00 in0.0 mm 0.00 in0.0 mm 0.00 in0.0 mm
02:31 AM 71.2°F21.8°C 70.3°F21.3°C 97% 0.9 mph NE1.4 kmh NE 2.0 mph3.2 kmh 30.21 in1023.0 mb 0.00 in0.0 mm 0.00 in0.0 mm 0.00 in0.0 mm
02:30 AM 71.2°F21.8°C 70.0°F21.1°C 96% 0.9 mph NE1.4 kmh NE 2.0 mph3.2 kmh 30.21 in1023.0 mb 0.00 in0.0 mm 0.00 in0.0 mm 0.00 in0.0 mm
02:29 AM 71.2°F21.8°C 70.3°F21.3°C 97% 0.9 mph NE1.4 kmh NE 0.9 mph1.4 kmh 30.20 in1022.7 mb 0.00 in0.0 mm 0.00 in0.0 mm 0.00 in0.0 mm
02:28 AM 71.2°F21.8°C 70.3°F21.3°C 97% 0.9 mph NE1.4 kmh NE 0.9 mph1.4 kmh 30.20 in1022.7 mb 0.00 in0.0 mm 0.00 in0.0 mm 0.00 in0.0 mm
02:27 AM 71.2°F21.8°C 70.0°F21.1°C 96% 0.9 mph NE1.4 kmh NE 0.9 mph1.4 kmh 30.21 in1023.0 mb 0.00 in0.0 mm 0.00 in0.0 mm 0.00 in0.0 mm
02:26 AM 71.2°F21.8°C 70.3°F21.3°C 97% 0.9 mph NE1.4 kmh NE 0.9 mph1.4 kmh 30.20 in1022.7 mb 0.00 in0.0 mm 0.00 in0.0 mm 0.00 in0.0 mm
02:25 AM 71.2°F21.8°C 70.0°F21.1°C 96% 0.9 mph NE1.4 kmh NE 0.9 mph1.4 kmh 30.20 in1022.7 mb 0.00 in0.0 mm 0.00 in0.0 mm 0.00 in0.0 mm
02:24 AM 71.2°F21.8°C 70.0°F21.1°C 96% 2.0 mph NE3.2 kmh NE 4.0 mph6.4 kmh 30.21 in1023.0 mb 0.00 in0.0 mm 0.00 in0.0 mm 0.00 in0.0 mm
02:23 AM 71.2°F21.8°C 70.0°F21.1°C 96% 2.0 mph NE3.2 kmh NE 2.0 mph3.2 kmh 30.20 in1022.7 mb 0.00 in0.0 mm 0.00 in0.0 mm 0.00 in0.0 mm
02:22 AM 71.2°F21.8°C 70.0°F21.1°C 96% 2.0 mph NE3.2 kmh NE 2.0 mph3.2 kmh 30.21 in1023.0 mb 0.00 in0.0 mm 0.00 in0.0 mm 0.00 in0.0 mm
02:20 AM 71.2°F21.8°C 70.0°F21.1°C 96% 2.0 mph NE3.2 kmh NE 2.0 mph3.2 kmh 30.21 in1023.0 mb 0.00 in0.0 mm 0.00 in0.0 mm 0.00 in0.0 mm
02:19 AM 71.2°F21.8°C 70.0°F21.1°C 96% 2.0 mph NE3.2 kmh NE 2.0 mph3.2 kmh 30.21 in1023.0 mb 0.00 in0.0 mm 0.00 in0.0 mm 0.00 in0.0 mm
02:18 AM 71.4°F21.9°C 70.2°F21.2°C 96% 2.0 mph NE3.2 kmh NE 2.9 mph4.7 kmh 30.21 in1023.0 mb 0.00 in0.0 mm 0.00 in0.0 mm 0.00 in0.0 mm
02:17 AM 71.4°F21.9°C 70.2°F21.2°C 96% 2.0 mph NW3.2 kmh NW 2.9 mph4.7 kmh 30.21 in1023.0 mb 0.00 in0.0 mm 0.00 in0.0 mm 0.00 in0.0 mm
02:16 AM 71.4°F21.9°C 70.2°F21.2°C 96% 2.0 mph NW3.2 kmh NW 2.0 mph3.2 kmh 30.21 in1023.0 mb 0.00 in0.0 mm 0.00 in0.0 mm 0.00 in0.0 mm
02:15 AM 71.4°F21.9°C 70.2°F21.2°C 96% 2.0 mph NW3.2 kmh NW 2.9 mph4.7 kmh 30.21 in1023.0 mb 0.00 in0.0 mm 0.00 in0.0 mm 0.00 in0.0 mm
02:14 AM 71.4°F21.9°C 70.2°F21.2°C 96% 2.0 mph NW3.2 kmh NW 2.9 mph4.7 kmh 30.21 in1023.0 mb 0.00 in0.0 mm 0.00 in0.0 mm 0.00 in0.0 mm
02:13 AM 71.4°F21.9°C 70.2°F21.2°C 96% 2.0 mph NW3.2 kmh NW 4.0 mph6.4 kmh 30.20 in1022.7 mb 0.00 in0.0 mm 0.00 in0.0 mm 0.00 in0.0 mm
02:12 AM 71.4°F21.9°C 70.2°F21.2°C 96% 2.0 mph NW3.2 kmh NW 2.9 mph4.7 kmh 30.20 in1022.7 mb 0.00 in0.0 mm 0.00 in0.0 mm 0.00 in0.0 mm
02:11 AM 71.4°F21.9°C 70.2°F21.2°C 96% 2.0 mph NW3.2 kmh NW 2.0 mph3.2 kmh 30.21 in1023.0 mb 0.00 in0.0 mm 0.00 in0.0 mm 0.00 in0.0 mm
02:10 AM 71.4°F21.9°C 70.2°F21.2°C 96% 2.0 mph NW3.2 kmh NW 2.9 mph4.7 kmh 30.21 in1023.0 mb 0.00 in0.0 mm 0.00 in0.0 mm 0.00 in0.0 mm
02:09 AM 71.4°F21.9°C 70.2°F21.2°C 96% 0.9 mph NW1.4 kmh NW 2.9 mph4.7 kmh 30.21 in1023.0 mb 0.00 in0.0 mm 0.00 in0.0 mm 0.00 in0.0 mm
02:08 AM 71.4°F21.9°C 70.2°F21.2°C 96% 0.9 mph NW1.4 kmh NW 2.0 mph3.2 kmh 30.21 in1023.0 mb 0.00 in0.0 mm 0.00 in0.0 mm 0.00 in0.0 mm
02:07 AM 71.4°F21.9°C 70.2°F21.2°C 96% 0.9 mph NW1.4 kmh NW 2.0 mph3.2 kmh 30.20 in1022.7 mb 0.00 in0.0 mm 0.00 in0.0 mm 0.00 in0.0 mm
02:06 AM 71.4°F21.9°C 70.2°F21.2°C 96% 0.9 mph NW1.4 kmh NW 2.0 mph3.2 kmh 30.20 in1022.7 mb 0.00 in0.0 mm 0.00 in0.0 mm 0.00 in0.0 mm
02:05 AM 71.4°F21.9°C 70.2°F21.2°C 96% 0.9 mph NW1.4 kmh NW 2.9 mph4.7 kmh 30.21 in1023.0 mb 0.00 in0.0 mm 0.00 in0.0 mm 0.00 in0.0 mm
02:04 AM 71.4°F21.9°C 70.2°F21.2°C 96% 0.9 mph NW1.4 kmh NW 2.0 mph3.2 kmh 30.21 in1023.0 mb 0.00 in0.0 mm 0.00 in0.0 mm 0.00 in0.0 mm
02:03 AM 71.4°F21.9°C 70.2°F21.2°C 96% 0.9 mph NW1.4 kmh NW 2.0 mph3.2 kmh 30.21 in1023.0 mb 0.00 in0.0 mm 0.00 in0.0 mm 0.00 in0.0 mm
02:02 AM 71.4°F21.9°C 70.2°F21.2°C 96% 0.9 mph NW1.4 kmh NW 2.0 mph3.2 kmh 30.21 in1023.0 mb 0.00 in0.0 mm 0.00 in0.0 mm 0.00 in0.0 mm
02:01 AM 71.4°F21.9°C 70.2°F21.2°C 96% 0.9 mph NW1.4 kmh NW 2.0 mph3.2 kmh 30.21 in1023.0 mb 0.00 in0.0 mm 0.00 in0.0 mm 0.00 in0.0 mm
02:00 AM 71.6°F22.0°C 70.3°F21.3°C 96% 0.9 mph NW1.4 kmh NW 2.0 mph3.2 kmh 30.21 in1023.0 mb 0.00 in0.0 mm 0.00 in0.0 mm 0.00 in0.0 mm
01:59 AM 71.6°F22.0°C 70.3°F21.3°C 96% 0.9 mph NW1.4 kmh NW 2.9 mph4.7 kmh 30.21 in1023.0 mb 0.00 in0.0 mm 0.00 in0.0 mm 0.00 in0.0 mm
01:58 AM 71.6°F22.0°C 70.3°F21.3°C 96% 0.9 mph NW1.4 kmh NW 2.9 mph4.7 kmh 30.21 in1023.0 mb 0.00 in0.0 mm 0.00 in0.0 mm 0.00 in0.0 mm
01:57 AM 71.6°F22.0°C 70.3°F21.3°C 96% 0.9 mph NW1.4 kmh NW 2.0 mph3.2 kmh 30.21 in1023.0 mb 0.00 in0.0 mm 0.00 in0.0 mm 0.00 in0.0 mm
01:56 AM 71.6°F22.0°C 70.3°F21.3°C 96% 0.9 mph NW1.4 kmh NW 3.0 mph4.8 kmh 30.21 in1023.0 mb 0.00 in0.0 mm 0.00 in0.0 mm 0.00 in0.0 mm
01:55 AM 71.4°F21.9°C 70.2°F21.2°C 96% 0.9 mph NW1.4 kmh NW 2.0 mph3.2 kmh 30.21 in1023.0 mb 0.00 in0.0 mm 0.00 in0.0 mm 0.00 in0.0 mm
01:54 AM 71.4°F21.9°C 70.2°F21.2°C 96% 0.9 mph NW1.4 kmh NW 0.9 mph1.4 kmh 30.21 in1023.0 mb 0.00 in0.0 mm 0.00 in0.0 mm 0.00 in0.0 mm
01:53 AM 71.6°F22.0°C 70.3°F21.3°C 96% 0.9 mph NW1.4 kmh NW 0.9 mph1.4 kmh 30.21 in1023.0 mb 0.00 in0.0 mm 0.00 in0.0 mm 0.00 in0.0 mm
01:52 AM 71.8°F22.1°C 70.5°F21.4°C 96% 0.9 mph NW1.4 kmh NW 0.9 mph1.4 kmh 30.21 in1023.0 mb 0.00 in0.0 mm 0.00 in0.0 mm 0.00 in0.0 mm
01:51 AM 71.8°F22.1°C 70.5°F21.4°C 96% 0.9 mph NW1.4 kmh NW 0.9 mph1.4 kmh 30.21 in1023.0 mb 0.00 in0.0 mm 0.00 in0.0 mm 0.00 in0.0 mm
01:50 AM 71.8°F22.1°C 70.5°F21.4°C 96% 0.9 mph NW1.4 kmh NW 0.9 mph1.4 kmh 30.21 in1023.0 mb 0.00 in0.0 mm 0.00 in0.0 mm 0.00 in0.0 mm
01:49 AM 71.8°F22.1°C 70.5°F21.4°C 96% 0.9 mph NW1.4 kmh NW 0.9 mph1.4 kmh 30.21 in1023.0 mb 0.00 in0.0 mm 0.00 in0.0 mm 0.00 in0.0 mm
01:48 AM 71.8°F22.1°C 70.5°F21.4°C 96% 2.0 mph NW3.2 kmh NW 2.0 mph3.2 kmh 30.21 in1023.0 mb 0.00 in0.0 mm 0.00 in0.0 mm 0.00 in0.0 mm
01:47 AM 71.8°F22.1°C 70.5°F21.4°C 96% 2.0 mph NW3.2 kmh NW 2.0 mph3.2 kmh 30.21 in1023.0 mb 0.00 in0.0 mm 0.00 in0.0 mm 0.00 in0.0 mm
01:46 AM 71.8°F22.1°C 70.5°F21.4°C 96% 2.0 mph NW3.2 kmh NW 2.0 mph3.2 kmh 30.21 in1023.0 mb 0.00 in0.0 mm 0.00 in0.0 mm 0.00 in0.0 mm
01:45 AM 71.8°F22.1°C 70.5°F21.4°C 96% 2.0 mph NW3.2 kmh NW 2.9 mph4.7 kmh 30.21 in1023.0 mb 0.00 in0.0 mm 0.00 in0.0 mm 0.00 in0.0 mm
01:44 AM 71.8°F22.1°C 70.5°F21.4°C 96% 2.0 mph NW3.2 kmh NW 2.9 mph4.7 kmh 30.21 in1023.0 mb 0.00 in0.0 mm 0.00 in0.0 mm 0.00 in0.0 mm
01:43 AM 71.8°F22.1°C 70.5°F21.4°C 96% 0.9 mph NW1.4 kmh NW 2.0 mph3.2 kmh 30.21 in1023.0 mb 0.00 in0.0 mm 0.00 in0.0 mm 0.00 in0.0 mm
01:41 AM 71.8°F22.1°C 70.5°F21.4°C 96% 0.9 mph NW1.4 kmh NW 2.0 mph3.2 kmh 30.21 in1023.0 mb 0.00 in0.0 mm 0.00 in0.0 mm 0.00 in0.0 mm
01:40 AM 72.0°F22.2°C 70.7°F21.5°C 96% 0.9 mph NW1.4 kmh NW 2.9 mph4.7 kmh 30.21 in1023.0 mb 0.00 in0.0 mm 0.00 in0.0 mm 0.00 in0.0 mm
01:39 AM 71.8°F22.1°C 70.5°F21.4°C 96% 2.0 mph NW3.2 kmh NW 2.0 mph3.2 kmh 30.21 in1023.0 mb 0.00 in0.0 mm 0.00 in0.0 mm 0.00 in0.0 mm
01:38 AM 71.8°F22.1°C 70.5°F21.4°C 96% 0.9 mph NW1.4 kmh NW 2.0 mph3.2 kmh 30.21 in1023.0 mb 0.00 in0.0 mm 0.00 in0.0 mm 0.00 in0.0 mm
01:37 AM 71.8°F22.1°C 70.5°F21.4°C 96% 0.9 mph NW1.4 kmh NW 2.0 mph3.2 kmh 30.21 in1023.0 mb 0.00 in0.0 mm 0.00 in0.0 mm 0.00 in0.0 mm
01:36 AM 71.8°F22.1°C 70.5°F21.4°C 96% 0.9 mph NW1.4 kmh NW 2.0 mph3.2 kmh 30.21 in1023.0 mb 0.00 in0.0 mm 0.00 in0.0 mm 0.00 in0.0 mm
01:35 AM 71.8°F22.1°C 70.5°F21.4°C 96% 2.0 mph NW3.2 kmh NW 2.9 mph4.7 kmh 30.21 in1023.0 mb 0.00 in0.0 mm 0.00 in0.0 mm 0.00 in0.0 mm
01:34 AM 71.8°F22.1°C 70.5°F21.4°C 96% 2.0 mph NW3.2 kmh NW 2.0 mph3.2 kmh 30.21 in1023.0 mb 0.00 in0.0 mm 0.00 in0.0 mm 0.00 in0.0 mm
01:33 AM 71.8°F22.1°C 70.5°F21.4°C 96% 2.0 mph NW3.2 kmh NW 2.0 mph3.2 kmh 30.21 in1023.0 mb 0.00 in0.0 mm 0.00 in0.0 mm 0.00 in0.0 mm
01:32 AM 71.8°F22.1°C 70.5°F21.4°C 96% 2.0 mph NW3.2 kmh NW 2.0 mph3.2 kmh 30.21 in1023.0 mb 0.00 in0.0 mm 0.00 in0.0 mm 0.00 in0.0 mm
01:31 AM 71.8°F22.1°C 70.5°F21.4°C 96% 2.0 mph NW3.2 kmh NW 2.0 mph3.2 kmh 30.21 in1023.0 mb 0.00 in0.0 mm 0.00 in0.0 mm 0.00 in0.0 mm
01:30 AM 71.8°F22.1°C 70.5°F21.4°C 96% 2.0 mph NW3.2 kmh NW 2.9 mph4.7 kmh 30.22 in1023.4 mb 0.00 in0.0 mm 0.00 in0.0 mm 0.00 in0.0 mm
01:29 AM 71.8°F22.1°C 70.5°F21.4°C 96% 2.0 mph NW3.2 kmh NW 6.0 mph9.7 kmh 30.22 in1023.4 mb 0.00 in0.0 mm 0.00 in0.0 mm 0.00 in0.0 mm
01:28 AM 71.8°F22.1°C 70.5°F21.4°C 96% 2.0 mph NW3.2 kmh NW 2.9 mph4.7 kmh 30.22 in1023.4 mb 0.00 in0.0 mm 0.00 in0.0 mm 0.00 in0.0 mm
01:27 AM 71.8°F22.1°C 70.5°F21.4°C 96% 2.9 mph NW4.7 kmh NW 2.9 mph4.7 kmh 30.22 in1023.4 mb 0.00 in0.0 mm 0.00 in0.0 mm 0.00 in0.0 mm
01:26 AM 71.8°F22.1°C 70.5°F21.4°C 96% 2.9 mph NW4.7 kmh NW 2.9 mph4.7 kmh 30.22 in1023.4 mb 0.00 in0.0 mm 0.00 in0.0 mm 0.00 in0.0 mm
01:25 AM 71.8°F22.1°C 70.5°F21.4°C 96% 2.9 mph NW4.7 kmh NW 2.9 mph4.7 kmh 30.22 in1023.4 mb 0.00 in0.0 mm 0.00 in0.0 mm 0.00 in0.0 mm
01:24 AM 71.8°F22.1°C 70.5°F21.4°C 96% 2.9 mph NW4.7 kmh NW 2.9 mph4.7 kmh 30.22 in1023.4 mb 0.00 in0.0 mm 0.00 in0.0 mm 0.00 in0.0 mm
01:23 AM 71.8°F22.1°C 70.5°F21.4°C 96% 2.9 mph NW4.7 kmh NW 2.9 mph4.7 kmh 30.22 in1023.4 mb 0.00 in0.0 mm 0.00 in0.0 mm 0.00 in0.0 mm
01:22 AM 71.8°F22.1°C 70.5°F21.4°C 96% 2.9 mph NW4.7 kmh NW 2.9 mph4.7 kmh 30.22 in1023.4 mb 0.00 in0.0 mm 0.00 in0.0 mm 0.00 in0.0 mm
01:21 AM 71.8°F22.1°C 70.5°F21.4°C 96% 2.9 mph NW4.7 kmh NW 2.9 mph4.7 kmh 30.22 in1023.4 mb 0.00 in0.0 mm 0.00 in0.0 mm 0.00 in0.0 mm
01:20 AM 71.8°F22.1°C 70.5°F21.4°C 96% 2.9 mph NW4.7 kmh NW 4.9 mph7.9 kmh 30.22 in1023.4 mb 0.00 in0.0 mm 0.00 in0.0 mm 0.00 in0.0 mm
01:19 AM 71.8°F22.1°C 70.5°F21.4°C 96% 2.9 mph NNW4.7 kmh NNW 6.0 mph9.7 kmh 30.22 in1023.4 mb 0.00 in0.0 mm 0.00 in0.0 mm 0.00 in0.0 mm
01:18 AM 71.8°F22.1°C 70.5°F21.4°C 96% 2.9 mph NNW4.7 kmh NNW 4.9 mph7.9 kmh 30.22 in1023.4 mb 0.00 in0.0 mm 0.00 in0.0 mm 0.00 in0.0 mm
01:17 AM 71.8°F22.1°C 70.5°F21.4°C 96% 2.9 mph NW4.7 kmh NW 6.0 mph9.7 kmh 30.22 in1023.4 mb 0.00 in0.0 mm 0.00 in0.0 mm 0.00 in0.0 mm
01:16 AM 71.8°F22.1°C 70.5°F21.4°C 96% 2.9 mph NNW4.7 kmh NNW 4.9 mph7.9 kmh 30.22 in1023.4 mb 0.00 in0.0 mm 0.00 in0.0 mm 0.00 in0.0 mm
01:15 AM 71.8°F22.1°C 70.5°F21.4°C 96% 2.9 mph NNW4.7 kmh NNW 4.0 mph6.4 kmh 30.22 in1023.4 mb 0.00 in0.0 mm 0.00 in0.0 mm 0.00 in0.0 mm
01:14 AM 71.8°F22.1°C 70.5°F21.4°C 96% 2.9 mph N4.7 kmh N 4.0 mph6.4 kmh 30.22 in1023.4 mb 0.00 in0.0 mm 0.00 in0.0 mm 0.00 in0.0 mm
01:13 AM 71.8°F22.1°C 70.5°F21.4°C 96% 2.9 mph N4.7 kmh N 4.9 mph7.9 kmh 30.22 in1023.4 mb 0.00 in0.0 mm 0.00 in0.0 mm 0.00 in0.0 mm
01:12 AM 71.8°F22.1°C 70.5°F21.4°C 96% 2.9 mph NW4.7 kmh NW 4.0 mph6.4 kmh 30.22 in1023.4 mb 0.00 in0.0 mm 0.00 in0.0 mm 0.00 in0.0 mm
01:11 AM 71.8°F22.1°C 70.5°F21.4°C 96% 2.9 mph NW4.7 kmh NW 4.0 mph6.4 kmh 30.22 in1023.4 mb 0.00 in0.0 mm 0.00 in0.0 mm 0.00 in0.0 mm
01:10 AM 72.0°F22.2°C 70.7°F21.5°C 96% 2.9 mph NW4.7 kmh NW 4.0 mph6.4 kmh 30.22 in1023.4 mb 0.00 in0.0 mm 0.00 in0.0 mm 0.00 in0.0 mm
01:09 AM 71.8°F22.1°C 70.5°F21.4°C 96% 2.0 mph NW3.2 kmh NW 4.0 mph6.4 kmh 30.22 in1023.4 mb 0.00 in0.0 mm 0.00 in0.0 mm 0.00 in0.0 mm
01:08 AM 72.0°F22.2°C 70.7°F21.5°C 96% 2.0 mph NW3.2 kmh NW 4.0 mph6.4 kmh 30.22 in1023.4 mb 0.00 in0.0 mm 0.00 in0.0 mm 0.00 in0.0 mm
01:07 AM 72.0°F22.2°C 70.7°F21.5°C 96% 2.0 mph NW3.2 kmh NW 4.0 mph6.4 kmh 30.22 in1023.4 mb 0.00 in0.0 mm 0.00 in0.0 mm 0.00 in0.0 mm
01:06 AM 72.0°F22.2°C 70.7°F21.5°C 96% 2.0 mph NW3.2 kmh NW 4.0 mph6.4 kmh 30.22 in1023.4 mb 0.00 in0.0 mm 0.00 in0.0 mm 0.00 in0.0 mm
01:05 AM 72.0°F22.2°C 70.7°F21.5°C 96% 2.0 mph NW3.2 kmh NW 4.0 mph6.4 kmh 30.22 in1023.4 mb 0.00 in0.0 mm 0.00 in0.0 mm 0.00 in0.0 mm
01:04 AM 72.0°F22.2°C 70.7°F21.5°C 96% 0.9 mph NW1.4 kmh NW 2.9 mph4.7 kmh 30.22 in1023.4 mb 0.00 in0.0 mm 0.00 in0.0 mm 0.00 in0.0 mm
01:03 AM 71.8°F22.1°C 70.5°F21.4°C 96% 0.9 mph NW1.4 kmh NW 2.9 mph4.7 kmh 30.22 in1023.4 mb 0.00 in0.0 mm 0.00 in0.0 mm 0.00 in0.0 mm
01:02 AM 72.0°F22.2°C 70.7°F21.5°C 96% 0.9 mph NW1.4 kmh NW 2.0 mph3.2 kmh 30.22 in1023.4 mb 0.00 in0.0 mm 0.00 in0.0 mm 0.00 in0.0 mm
01:01 AM 72.0°F22.2°C 70.7°F21.5°C 96% 0.9 mph NW1.4 kmh NW 0.9 mph1.4 kmh 30.22 in1023.4 mb 0.00 in0.0 mm 0.00 in0.0 mm 0.00 in0.0 mm
01:00 AM 72.0°F22.2°C 70.7°F21.5°C 96% 0.9 mph NW1.4 kmh NW 0.9 mph1.4 kmh 30.22 in1023.4 mb 0.00 in0.0 mm 0.00 in0.0 mm 0.00 in0.0 mm
12:59 AM 72.0°F22.2°C 70.7°F21.5°C 96% 0.9 mph NW1.4 kmh NW 0.9 mph1.4 kmh 30.22 in1023.4 mb 0.00 in0.0 mm 0.00 in0.0 mm 0.00 in0.0 mm
12:58 AM 72.0°F22.2°C 70.7°F21.5°C 96% 0.9 mph NW1.4 kmh NW 2.0 mph3.2 kmh 30.22 in1023.4 mb 0.00 in0.0 mm 0.00 in0.0 mm 0.00 in0.0 mm
12:57 AM 72.0°F22.2°C 70.7°F21.5°C 96% 0.9 mph NW1.4 kmh NW 2.9 mph4.7 kmh 30.22 in1023.4 mb 0.00 in0.0 mm 0.00 in0.0 mm 0.00 in0.0 mm
12:56 AM 72.0°F22.2°C 70.7°F21.5°C 96% 0.9 mph NW1.4 kmh NW 2.9 mph4.7 kmh 30.22 in1023.4 mb 0.00 in0.0 mm 0.00 in0.0 mm 0.00 in0.0 mm
12:55 AM 72.0°F22.2°C 70.7°F21.5°C 96% 0.9 mph NW1.4 kmh NW 2.0 mph3.2 kmh 30.22 in1023.4 mb 0.00 in0.0 mm 0.00 in0.0 mm 0.00 in0.0 mm
12:54 AM 72.0°F22.2°C 70.7°F21.5°C 96% Calm Calm 2.9 mph4.7 kmh 30.22 in1023.4 mb 0.00 in0.0 mm 0.00 in0.0 mm 0.00 in0.0 mm
12:53 AM 72.0°F22.2°C 70.7°F21.5°C 96% Calm Calm 2.9 mph4.7 kmh 30.22 in1023.4 mb 0.00 in0.0 mm 0.00 in0.0 mm 0.00 in0.0 mm
12:52 AM 72.0°F22.2°C 70.7°F21.5°C 96% Calm Calm 2.0 mph3.2 kmh 30.22 in1023.4 mb 0.00 in0.0 mm 0.00 in0.0 mm 0.00 in0.0 mm
12:51 AM 72.0°F22.2°C 70.7°F21.5°C 96% Calm Calm 2.0 mph3.2 kmh 30.22 in1023.4 mb 0.00 in0.0 mm 0.00 in0.0 mm 0.00 in0.0 mm
12:50 AM 72.0°F22.2°C 70.7°F21.5°C 96% Calm Calm 0.9 mph1.4 kmh 30.22 in1023.4 mb 0.00 in0.0 mm 0.00 in0.0 mm 0.00 in0.0 mm
12:49 AM 72.0°F22.2°C 70.7°F21.5°C 96% Calm Calm 0.9 mph1.4 kmh 30.22 in1023.4 mb 0.00 in0.0 mm 0.00 in0.0 mm 0.00 in0.0 mm
12:48 AM 72.0°F22.2°C 70.7°F21.5°C 96% Calm Calm 3.0 mph4.8 kmh 30.22 in1023.4 mb 0.00 in0.0 mm 0.00 in0.0 mm 0.00 in0.0 mm
12:47 AM 72.0°F22.2°C 70.7°F21.5°C 96% 0.9 mph NW1.4 kmh NW 0.9 mph1.4 kmh 30.22 in1023.4 mb 0.00 in0.0 mm 0.00 in0.0 mm 0.00 in0.0 mm
12:46 AM 72.0°F22.2°C 70.7°F21.5°C 96% 0.9 mph NW1.4 kmh NW 0.9 mph1.4 kmh 30.22 in1023.4 mb 0.00 in0.0 mm 0.00 in0.0 mm 0.00 in0.0 mm
12:45 AM 72.1°F22.3°C 70.9°F21.6°C 96% 0.9 mph NW1.4 kmh NW -- 30.22 in1023.4 mb 0.00 in0.0 mm 0.00 in0.0 mm 0.00 in0.0 mm
12:44 AM 72.1°F22.3°C 70.9°F21.6°C 96% 0.9 mph NW1.4 kmh NW -- 30.22 in1023.4 mb 0.00 in0.0 mm 0.00 in0.0 mm 0.00 in0.0 mm
12:43 AM 72.1°F22.3°C 70.9°F21.6°C 96% 0.9 mph NW1.4 kmh NW 0.9 mph1.4 kmh 30.22 in1023.4 mb 0.00 in0.0 mm 0.00 in0.0 mm 0.00 in0.0 mm
12:42 AM 72.0°F22.2°C 70.7°F21.5°C 96% 0.9 mph NW1.4 kmh NW 0.9 mph1.4 kmh 30.22 in1023.4 mb 0.00 in0.0 mm 0.00 in0.0 mm 0.00 in0.0 mm
12:41 AM 72.1°F22.3°C 70.9°F21.6°C 96% 0.9 mph NW1.4 kmh NW 0.9 mph1.4 kmh 30.22 in1023.4 mb 0.00 in0.0 mm 0.00 in0.0 mm 0.00 in0.0 mm
12:40 AM 72.1°F22.3°C 70.9°F21.6°C 96% 0.9 mph NW1.4 kmh NW 0.9 mph1.4 kmh 30.22 in1023.4 mb 0.00 in0.0 mm 0.00 in0.0 mm 0.00 in0.0 mm
12:39 AM 72.0°F22.2°C 70.7°F21.5°C 96% 0.9 mph NW1.4 kmh NW 2.9 mph4.7 kmh 30.22 in1023.4 mb 0.00 in0.0 mm 0.00 in0.0 mm 0.00 in0.0 mm
12:38 AM 72.1°F22.3°C 70.9°F21.6°C 96% 0.9 mph NW1.4 kmh NW 2.9 mph4.7 kmh 30.22 in1023.4 mb 0.00 in0.0 mm 0.00 in0.0 mm 0.00 in0.0 mm
12:36 AM 72.1°F22.3°C 70.9°F21.6°C 96% 0.9 mph NW1.4 kmh NW 0.9 mph1.4 kmh 30.22 in1023.4 mb 0.00 in0.0 mm 0.00 in0.0 mm 0.00 in0.0 mm
12:35 AM 72.1°F22.3°C 70.9°F21.6°C 96% 0.9 mph NW1.4 kmh NW 2.0 mph3.2 kmh 30.22 in1023.4 mb 0.00 in0.0 mm 0.00 in0.0 mm 0.00 in0.0 mm
12:34 AM 72.1°F22.3°C 70.9°F21.6°C 96% 0.9 mph NW1.4 kmh NW 2.0 mph3.2 kmh 30.22 in1023.4 mb 0.00 in0.0 mm 0.00 in0.0 mm 0.00 in0.0 mm
12:33 AM 72.1°F22.3°C 70.9°F21.6°C 96% 0.9 mph NW1.4 kmh NW 2.9 mph4.7 kmh 30.22 in1023.4 mb 0.00 in0.0 mm 0.00 in0.0 mm 0.00 in0.0 mm
12:32 AM 72.1°F22.3°C 70.9°F21.6°C 96% 0.9 mph NW1.4 kmh NW 3.0 mph4.8 kmh 30.22 in1023.4 mb 0.00 in0.0 mm 0.00 in0.0 mm 0.00 in0.0 mm
12:31 AM 72.0°F22.2°C 70.7°F21.5°C 96% 0.9 mph NW1.4 kmh NW 2.0 mph3.2 kmh 30.23 in1023.7 mb 0.00 in0.0 mm 0.00 in0.0 mm 0.00 in0.0 mm
12:30 AM 72.0°F22.2°C 70.7°F21.5°C 96% 2.0 mph NW3.2 kmh NW 2.0 mph3.2 kmh 30.23 in1023.7 mb 0.00 in0.0 mm 0.00 in0.0 mm 0.00 in0.0 mm
12:29 AM 72.0°F22.2°C 70.7°F21.5°C 96% 2.0 mph NW3.2 kmh NW 2.0 mph3.2 kmh 30.23 in1023.7 mb 0.00 in0.0 mm 0.00 in0.0 mm 0.00 in0.0 mm
12:28 AM 72.0°F22.2°C 70.7°F21.5°C 96% 2.0 mph NW3.2 kmh NW 2.0 mph3.2 kmh 30.23 in1023.7 mb 0.00 in0.0 mm 0.00 in0.0 mm 0.00 in0.0 mm
12:27 AM 72.0°F22.2°C 70.7°F21.5°C 96% 2.0 mph NW3.2 kmh NW 2.0 mph3.2 kmh 30.23 in1023.7 mb 0.00 in0.0 mm 0.00 in0.0 mm 0.00 in0.0 mm
12:26 AM 72.0°F22.2°C 70.7°F21.5°C 96% 2.0 mph NW3.2 kmh NW 2.0 mph3.2 kmh 30.23 in1023.7 mb 0.00 in0.0 mm 0.00 in0.0 mm 0.00 in0.0 mm
12:25 AM 72.1°F22.3°C 70.9°F21.6°C 96% 2.0 mph NW3.2 kmh NW 2.0 mph3.2 kmh 30.22 in1023.4 mb 0.00 in0.0 mm 0.00 in0.0 mm 0.00 in0.0 mm
12:24 AM 72.1°F22.3°C 70.9°F21.6°C 96% 2.0 mph NW3.2 kmh NW 2.0 mph3.2 kmh 30.22 in1023.4 mb 0.00 in0.0 mm 0.00 in0.0 mm 0.00 in0.0 mm
12:23 AM 72.1°F22.3°C 70.9°F21.6°C 96% 2.0 mph NW3.2 kmh NW 2.9 mph4.7 kmh 30.22 in1023.4 mb 0.00 in0.0 mm 0.00 in0.0 mm 0.00 in0.0 mm
12:22 AM 72.0°F22.2°C 70.7°F21.5°C 96% 0.9 mph NW1.4 kmh NW 4.0 mph6.4 kmh 30.22 in1023.4 mb 0.00 in0.0 mm 0.00 in0.0 mm 0.00 in0.0 mm
12:21 AM 72.1°F22.3°C 70.9°F21.6°C 96% 0.9 mph NW1.4 kmh NW 2.9 mph4.7 kmh 30.23 in1023.7 mb 0.00 in0.0 mm 0.00 in0.0 mm 0.00 in0.0 mm
12:20 AM 72.1°F22.3°C 70.9°F21.6°C 96% 0.9 mph NW1.4 kmh NW 2.9 mph4.7 kmh 30.22 in1023.4 mb 0.00 in0.0 mm 0.00 in0.0 mm 0.00 in0.0 mm
12:19 AM 72.1°F22.3°C 70.9°F21.6°C 96% 0.9 mph NW1.4 kmh NW 2.0 mph3.2 kmh 30.22 in1023.4 mb 0.00 in0.0 mm 0.00 in0.0 mm 0.00 in0.0 mm
12:18 AM 72.1°F22.3°C 70.9°F21.6°C 96% 0.9 mph NW1.4 kmh NW 2.0 mph3.2 kmh 30.22 in1023.4 mb 0.00 in0.0 mm 0.00 in0.0 mm 0.00 in0.0 mm
12:17 AM 72.1°F22.3°C 70.9°F21.6°C 96% 0.9 mph NW1.4 kmh NW 2.0 mph3.2 kmh 30.22 in1023.4 mb 0.00 in0.0 mm 0.00 in0.0 mm 0.00 in0.0 mm
12:16 AM 72.1°F22.3°C 70.9°F21.6°C 96% 0.9 mph NW1.4 kmh NW 2.0 mph3.2 kmh 30.22 in1023.4 mb 0.00 in0.0 mm 0.00 in0.0 mm 0.00 in0.0 mm
12:15 AM 72.1°F22.3°C 70.9°F21.6°C 96% 0.9 mph NW1.4 kmh NW 2.0 mph3.2 kmh 30.23 in1023.7 mb 0.00 in0.0 mm 0.00 in0.0 mm 0.00 in0.0 mm
12:14 AM 72.1°F22.3°C 70.9°F21.6°C 96% 0.9 mph NW1.4 kmh NW 2.0 mph3.2 kmh 30.22 in1023.4 mb 0.00 in0.0 mm 0.00 in0.0 mm 0.00 in0.0 mm
12:13 AM 72.1°F22.3°C 70.9°F21.6°C 96% 0.9 mph NW1.4 kmh NW 0.9 mph1.4 kmh 30.22 in1023.4 mb 0.00 in0.0 mm 0.00 in0.0 mm 0.00 in0.0 mm
12:12 AM 72.1°F22.3°C 70.9°F21.6°C 96% 0.9 mph NW1.4 kmh NW 0.9 mph1.4 kmh 30.22 in1023.4 mb 0.00 in0.0 mm 0.00 in0.0 mm 0.00 in0.0 mm
12:11 AM 72.1°F22.3°C 70.9°F21.6°C 96% 0.9 mph NW1.4 kmh NW 0.9 mph1.4 kmh 30.22 in1023.4 mb 0.00 in0.0 mm 0.00 in0.0 mm 0.00 in0.0 mm
12:10 AM 72.1°F22.3°C 70.9°F21.6°C 96% 0.9 mph NW1.4 kmh NW 2.0 mph3.2 kmh 30.22 in1023.4 mb 0.00 in0.0 mm 0.00 in0.0 mm 0.00 in0.0 mm
12:09 AM 72.1°F22.3°C 70.9°F21.6°C 96% 0.9 mph NW1.4 kmh NW 0.9 mph1.4 kmh 30.22 in1023.4 mb 0.00 in0.0 mm 0.00 in0.0 mm 0.00 in0.0 mm
12:08 AM 72.1°F22.3°C 70.9°F21.6°C 96% 0.9 mph NW1.4 kmh NW 0.9 mph1.4 kmh 30.22 in1023.4 mb 0.00 in0.0 mm 0.00 in0.0 mm 0.00 in0.0 mm
12:07 AM 72.1°F22.3°C 70.9°F21.6°C 96% 0.9 mph NW1.4 kmh NW 0.9 mph1.4 kmh 30.23 in1023.7 mb 0.00 in0.0 mm 0.00 in0.0 mm 0.00 in0.0 mm
12:06 AM 72.1°F22.3°C 70.9°F21.6°C 96% 0.9 mph NW1.4 kmh NW 2.0 mph3.2 kmh 30.23 in1023.7 mb 0.00 in0.0 mm 0.00 in0.0 mm 0.00 in0.0 mm
12:05 AM 72.1°F22.3°C 70.9°F21.6°C 96% 0.9 mph NW1.4 kmh NW 2.0 mph3.2 kmh 30.23 in1023.7 mb 0.00 in0.0 mm 0.00 in0.0 mm 0.00 in0.0 mm
12:04 AM 72.1°F22.3°C 70.9°F21.6°C 96% 2.0 mph NW3.2 kmh NW 2.0 mph3.2 kmh 30.22 in1023.4 mb 0.00 in0.0 mm 0.00 in0.0 mm 0.00 in0.0 mm
12:03 AM 72.1°F22.3°C 70.9°F21.6°C 96% 2.0 mph NW3.2 kmh NW 2.0 mph3.2 kmh 30.23 in1023.7 mb 0.00 in0.0 mm 0.00 in0.0 mm 0.00 in0.0 mm
12:02 AM 72.1°F22.3°C 70.9°F21.6°C 96% 2.0 mph NW3.2 kmh NW 0.9 mph1.4 kmh 30.23 in1023.7 mb 0.00 in0.0 mm 0.00 in0.0 mm 0.00 in0.0 mm
12:01 AM 72.1°F22.3°C 70.9°F21.6°C 96% 2.0 mph NW3.2 kmh NW 2.0 mph3.2 kmh 30.23 in1023.7 mb 0.00 in0.0 mm 0.00 in0.0 mm 0.00 in0.0 mm
12:00 AM 72.1°F22.3°C 70.9°F21.6°C 96% 2.0 mph NW3.2 kmh NW 2.0 mph3.2 kmh 30.23 in1023.7 mb 0.00 in0.0 mm 0.00 in0.0 mm 0.00 in0.0 mm